createdAt,value
2023-05-10T00:07:13.519Z,13.3
2023-05-10T00:17:14.158Z,13.3
2023-05-10T00:27:14.505Z,13.2
2023-05-10T00:37:15.397Z,13.2
2023-05-10T00:47:16.473Z,13.2
2023-05-10T01:37:20.427Z,12.7
2023-05-10T02:37:23.763Z,12.2
2023-05-10T02:47:24.565Z,12.1
2023-05-10T03:47:26.360Z,12.3
2023-05-10T07:27:40.262Z,14.5
2023-05-10T08:27:44.052Z,15.2
2023-05-10T08:37:44.368Z,15.6
2023-05-10T08:47:45.329Z,15.7
2023-05-10T08:57:45.722Z,15.5
2023-05-10T09:07:46.363Z,15.5
2023-05-10T09:47:48.004Z,15.9
2023-05-10T09:57:48.509Z,16.3
2023-05-10T10:07:49.102Z,16.7
2023-05-10T10:17:49.598Z,15.8
2023-05-10T10:27:50.469Z,15.8
2023-05-10T10:37:51.017Z,16.2
2023-05-10T10:57:51.954Z,16
2023-05-10T11:07:52.110Z,16.2
2023-05-10T11:17:52.973Z,16.2
2023-05-10T11:27:53.773Z,16.2
2023-05-10T11:47:54.843Z,16.4
2023-05-10T11:57:55.433Z,16.5
2023-05-10T12:07:55.711Z,16.3
2023-05-10T12:17:56.619Z,16.1
2023-05-10T12:27:56.777Z,16.5
2023-05-10T12:57:58.516Z,17.1
2023-05-10T13:07:59.059Z,17.2
2023-05-10T13:17:59.261Z,17.7
2023-05-10T13:27:59.775Z,17.8
2023-05-10T13:38:00.228Z,17.4
2023-05-10T13:48:01.071Z,17.6
2023-05-10T13:58:01.205Z,17.7
2023-05-10T14:18:02.302Z,17.1
2023-05-10T15:18:04.875Z,17.6
2023-05-10T16:08:07.394Z,17.9
2023-05-10T16:18:08.335Z,18
2023-05-10T16:28:09.287Z,17.7
2023-05-10T16:38:10.073Z,17.5
2023-05-10T16:48:10.035Z,17.5
2023-05-10T16:58:10.779Z,17
2023-05-10T17:08:11.028Z,16.6
2023-05-10T17:18:11.437Z,16.6
2023-05-10T17:28:12.417Z,16.4
2023-05-10T17:38:12.763Z,16.6
2023-05-10T17:48:13.460Z,16.3
2023-05-10T17:58:13.941Z,16.1
2023-05-10T18:08:14.752Z,16.1
2023-05-10T18:18:15.860Z,16
2023-05-10T18:28:16.887Z,16.2
2023-05-10T18:38:17.144Z,16
2023-05-10T18:48:18.078Z,15.7
2023-05-10T18:58:18.520Z,15.5
2023-05-10T19:18:20.832Z,15.2
2023-05-10T19:28:20.519Z,15.1
2023-05-10T19:38:21.604Z,15
2023-05-10T19:48:22.415Z,14.8
2023-05-10T19:58:28.866Z,14.6
2023-05-10T20:08:29.614Z,14.6
2023-05-10T20:18:30.290Z,14.6
2023-05-10T20:28:30.536Z,14.4
2023-05-10T20:38:30.662Z,14.4
2023-05-10T20:48:31.448Z,14.4
2023-05-10T20:58:32.441Z,14.4
2023-05-10T21:08:33.172Z,14.2
2023-05-10T21:18:33.958Z,14.2
2023-05-10T21:28:34.901Z,14.2
2023-05-10T21:38:35.879Z,14.1
2023-05-10T21:48:36.303Z,14
2023-05-10T21:58:36.649Z,14
2023-05-10T22:08:37.106Z,13.9
2023-05-10T22:18:38.189Z,13.8
2023-05-10T22:28:39.039Z,13.7
2023-05-10T22:38:39.464Z,13.7
2023-05-10T22:48:39.934Z,13.7
2023-05-10T22:58:40.956Z,13.6
2023-05-10T23:08:41.660Z,13.6
2023-05-10T23:18:42.556Z,13.6
2023-05-10T23:28:43.331Z,13.5
2023-05-10T23:38:43.440Z,13.5
2023-05-10T23:48:44.037Z,13.5
2023-05-10T23:58:44.551Z,13.3
